sensor_id;sensor_type;location;lat;lon;timestamp;pressure;altitude;pressure_sealevel;temperature;humidity
48077;BME280;33854;57.708;12.008;2023-03-01T00:01:49;98397.25;;;-0.68;100.00
48077;BME280;33854;57.708;12.008;2023-03-01T00:04:14;98378.44;;;-0.67;100.00
48077;BME280;33854;57.708;12.008;2023-03-01T00:06:42;98350.28;;;-0.67;100.00
48077;BME280;33854;57.708;12.008;2023-03-01T00:09:08;98341.13;;;-0.74;100.00
48077;BME280;33854;57.708;12.008;2023-03-01T00:11:34;98353.91;;;-0.73;100.00
48077;BME280;33854;57.708;12.008;2023-03-01T00:14:01;98361.59;;;-0.73;100.00
48077;BME280;33854;57.708;12.008;2023-03-01T00:16:29;98373.66;;;-0.76;100.00
48077;BME280;33854;57.708;12.008;2023-03-01T00:18:56;98396.81;;;-0.79;100.00
48077;BME280;33854;57.708;12.008;2023-03-01T00:21:22;98392.34;;;-0.74;100.00
48077;BME280;33854;57.708;12.008;2023-03-01T00:23:49;98382.00;;;-0.71;100.00
48077;BME280;33854;57.708;12.008;2023-03-01T00:26:16;98368.44;;;-0.73;100.00
48077;BME280;33854;57.708;12.008;2023-03-01T00:28:42;98374.50;;;-0.76;100.00
48077;BME280;33854;57.708;12.008;2023-03-01T00:31:14;98386.28;;;-0.72;100.00
48077;BME280;33854;57.708;12.008;2023-03-01T00:33:40;98370.44;;;-0.81;100.00
48077;BME280;33854;57.708;12.008;2023-03-01T00:36:06;98389.75;;;-0.73;100.00
48077;BME280;33854;57.708;12.008;2023-03-01T00:38:39;98378.78;;;-0.76;100.00
48077;BME280;33854;57.708;12.008;2023-03-01T00:41:07;98367.88;;;-0.81;100.00
48077;BME280;33854;57.708;12.008;2023-03-01T00:43:33;98356.91;;;-0.85;100.00
48077;BME280;33854;57.708;12.008;2023-03-01T00:46:10;98368.03;;;-0.86;100.00
48077;BME280;33854;57.708;12.008;2023-03-01T00:48:36;98339.94;;;-0.87;100.00
48077;BME280;33854;57.708;12.008;2023-03-01T00:51:10;98335.78;;;-0.90;100.00
48077;BME280;33854;57.708;12.008;2023-03-01T00:53:36;98338.88;;;-0.82;100.00
48077;BME280;33854;57.708;12.008;2023-03-01T00:56:04;98345.72;;;-0.82;100.00
48077;BME280;33854;57.708;12.008;2023-03-01T00:58:29;98358.53;;;-0.82;100.00
48077;BME280;33854;57.708;12.008;2023-03-01T01:00:55;98362.94;;;-0.86;100.00
48077;BME280;33854;57.708;12.008;2023-03-01T01:03:21;98373.28;;;-0.89;100.00
48077;BME280;33854;57.708;12.008;2023-03-01T01:05:47;98389.47;;;-0.88;100.00
48077;BME280;33854;57.708;12.008;2023-03-01T01:08:12;98383.41;;;-0.86;100.00
48077;BME280;33854;57.708;12.008;2023-03-01T01:10:38;98398.94;;;-0.90;100.00
48077;BME280;33854;57.708;12.008;2023-03-01T01:13:03;98405.78;;;-0.91;100.00
48077;BME280;33854;57.708;12.008;2023-03-01T01:15:33;98404.97;;;-0.91;100.00
48077;BME280;33854;57.708;12.008;2023-03-01T01:17:59;98387.88;;;-0.91;100.00
48077;BME280;33854;57.708;12.008;2023-03-01T01:20:24;98350.66;;;-0.99;100.00
48077;BME280;33854;57.708;12.008;2023-03-01T01:22:50;98361.00;;;-1.02;100.00
48077;BME280;33854;57.708;12.008;2023-03-01T01:25:16;98362.78;;;-1.04;100.00
48077;BME280;33854;57.708;12.008;2023-03-01T01:27:41;98344.22;;;-1.09;100.00
48077;BME280;33854;57.708;12.008;2023-03-01T01:30:07;98346.81;;;-1.11;100.00
48077;BME280;33854;57.708;12.008;2023-03-01T01:32:33;98351.28;;;-1.16;100.00
48077;BME280;33854;57.708;12.008;2023-03-01T01:34:58;98359.06;;;-1.19;100.00
48077;BME280;33854;57.708;12.008;2023-03-01T01:37:24;98324.53;;;-1.31;100.00
48077;BME280;33854;57.708;12.008;2023-03-01T01:39:59;98326.75;;;-1.22;100.00
48077;BME280;33854;57.708;12.008;2023-03-01T01:42:25;98325.19;;;-1.26;100.00
48077;BME280;33854;57.708;12.008;2023-03-01T01:47:51;98312.81;;;-1.38;100.00
48077;BME280;33854;57.708;12.008;2023-03-01T01:50:18;98312.72;;;-1.35;100.00
48077;BME280;33854;57.708;12.008;2023-03-01T01:52:44;98313.50;;;-1.33;100.00
48077;BME280;33854;57.708;12.008;2023-03-01T01:55:15;98282.41;;;-1.45;100.00
48077;BME280;33854;57.708;12.008;2023-03-01T01:57:49;98291.34;;;-1.32;100.00
48077;BME280;33854;57.708;12.008;2023-03-01T02:00:18;98317.72;;;-1.32;100.00
48077;BME280;33854;57.708;12.008;2023-03-01T02:02:46;98315.22;;;-1.33;100.00
48077;BME280;33854;57.708;12.008;2023-03-01T02:07:39;98320.25;;;-1.30;100.00
48077;BME280;33854;57.708;12.008;2023-03-01T02:10:07;98328.66;;;-1.27;100.00
48077;BME280;33854;57.708;12.008;2023-03-01T02:12:34;98319.28;;;-1.28;100.00
48077;BME280;33854;57.708;12.008;2023-03-01T02:15:00;98322.81;;;-1.30;100.00
48077;BME280;33854;57.708;12.008;2023-03-01T02:17:25;98307.50;;;-1.32;100.00
48077;BME280;33854;57.708;12.008;2023-03-01T02:22:38;98316.19;;;-1.36;100.00
48077;BME280;33854;57.708;12.008;2023-03-01T02:27:38;98330.91;;;-1.42;100.00
48077;BME280;33854;57.708;12.008;2023-03-01T02:30:07;98333.75;;;-1.50;100.00
48077;BME280;33854;57.708;12.008;2023-03-01T02:32:34;98348.41;;;-1.55;100.00
48077;BME280;33854;57.708;12.008;2023-03-01T02:35:00;98352.75;;;-1.57;100.00
48077;BME280;33854;57.708;12.008;2023-03-01T02:37:27;98335.97;;;-1.64;100.00
48077;BME280;33854;57.708;12.008;2023-03-01T02:39:59;98341.56;;;-1.54;100.00
48077;BME280;33854;57.708;12.008;2023-03-01T02:42:35;98338.97;;;-1.53;100.00
48077;BME280;33854;57.708;12.008;2023-03-01T02:45:02;98333.75;;;-1.50;100.00
48077;BME280;33854;57.708;12.008;2023-03-01T02:47:27;98329.63;;;-1.54;100.00
48077;BME280;33854;57.708;12.008;2023-03-01T02:49:53;98330.66;;;-1.58;100.00
48077;BME280;33854;57.708;12.008;2023-03-01T02:55:09;98328.09;;;-1.58;100.00
48077;BME280;33854;57.708;12.008;2023-03-01T02:57:38;98336.47;;;-1.54;100.00
48077;BME280;33854;57.708;12.008;2023-03-01T03:00:07;98322.72;;;-1.52;100.00
48077;BME280;33854;57.708;12.008;2023-03-01T03:02:34;98326.22;;;-1.54;100.00
48077;BME280;33854;57.708;12.008;2023-03-01T03:05:17;98330.28;;;-1.49;100.00
48077;BME280;33854;57.708;12.008;2023-03-01T03:07:44;98330.28;;;-1.49;100.00
48077;BME280;33854;57.708;12.008;2023-03-01T03:10:14;98337.19;;;-1.51;100.00
48077;BME280;33854;57.708;12.008;2023-03-01T03:12:40;98344.88;;;-1.51;100.00
48077;BME280;33854;57.708;12.008;2023-03-01T03:15:07;98358.44;;;-1.49;100.00
48077;BME280;33854;57.708;12.008;2023-03-01T03:17:37;98364.66;;;-1.56;100.00
48077;BME280;33854;57.708;12.008;2023-03-01T03:20:08;98380.78;;;-1.54;100.00
48077;BME280;33854;57.708;12.008;2023-03-01T03:22:38;98390.34;;;-1.59;100.00
48077;BME280;33854;57.708;12.008;2023-03-01T03:25:05;98401.53;;;-1.61;100.00
48077;BME280;33854;57.708;12.008;2023-03-01T03:27:30;98417.81;;;-1.64;100.00
48077;BME280;33854;57.708;12.008;2023-03-01T03:29:57;98418.69;;;-1.65;100.00
48077;BME280;33854;57.708;12.008;2023-03-01T03:32:22;98440.00;;;-1.66;100.00
48077;BME280;33854;57.708;12.008;2023-03-01T03:34:48;98435.09;;;-1.72;100.00
48077;BME280;33854;57.708;12.008;2023-03-01T03:37:14;98445.44;;;-1.75;100.00
48077;BME280;33854;57.708;12.008;2023-03-01T03:39:59;98448.88;;;-1.76;100.00
48077;BME280;33854;57.708;12.008;2023-03-01T03:42:25;98447.22;;;-1.77;100.00
48077;BME280;33854;57.708;12.008;2023-03-01T03:44:50;98459.22;;;-1.79;100.00
48077;BME280;33854;57.708;12.008;2023-03-01T03:47:15;98454.94;;;-1.79;100.00
48077;BME280;33854;57.708;12.008;2023-03-01T03:49:41;98445.94;;;-1.64;100.00
48077;BME280;33854;57.708;12.008;2023-03-01T03:52:06;98440.47;;;-1.55;100.00
48077;BME280;33854;57.708;12.008;2023-03-01T03:54:40;98440.66;;;-1.59;100.00
48077;BME280;33854;57.708;12.008;2023-03-01T03:57:06;98456.94;;;-1.62;100.00
48077;BME280;33854;57.708;12.008;2023-03-01T03:59:32;98470.66;;;-1.64;100.00
48077;BME280;33854;57.708;12.008;2023-03-01T04:01:57;98464.13;;;-1.73;100.00
48077;BME280;33854;57.708;12.008;2023-03-01T04:04:23;98481.94;;;-1.70;100.00
48077;BME280;33854;57.708;12.008;2023-03-01T04:06:48;98481.13;;;-1.72;100.00
48077;BME280;33854;57.708;12.008;2023-03-01T04:09:14;98482.81;;;-1.71;100.00
48077;BME280;33854;57.708;12.008;2023-03-01T04:11:39;98494.66;;;-1.68;100.00
48077;BME280;33854;57.708;12.008;2023-03-01T04:14:04;98484.50;;;-1.70;100.00
48077;BME280;33854;57.708;12.008;2023-03-01T04:16:30;98487.72;;;-1.65;100.00
48077;BME280;33854;57.708;12.008;2023-03-01T04:18:55;98469.16;;;-1.70;100.00
48077;BME280;33854;57.708;12.008;2023-03-01T04:21:21;98492.75;;;-1.62;100.00
48077;BME280;33854;57.708;12.008;2023-03-01T04:23:47;98496.19;;;-1.63;100.00
48077;BME280;33854;57.708;12.008;2023-03-01T04:26:13;98504.00;;;-1.67;100.00
48077;BME280;33854;57.708;12.008;2023-03-01T04:28:40;98510.84;;;-1.68;100.00
48077;BME280;33854;57.708;12.008;2023-03-01T04:31:13;98508.97;;;-1.63;100.00
48077;BME280;33854;57.708;12.008;2023-03-01T04:33:44;98506.28;;;-1.58;100.00
48077;BME280;33854;57.708;12.008;2023-03-01T04:36:11;98499.38;;;-1.56;100.00
48077;BME280;33854;57.708;12.008;2023-03-01T04:38:37;98501.78;;;-1.52;100.00
48077;BME280;33854;57.708;12.008;2023-03-01T04:41:08;98506.31;;;-1.60;100.00
48077;BME280;33854;57.708;12.008;2023-03-01T04:43:34;98531.25;;;-1.66;100.00
48077;BME280;33854;57.708;12.008;2023-03-01T04:46:02;98550.22;;;-1.74;100.00
48077;BME280;33854;57.708;12.008;2023-03-01T04:48:28;98565.84;;;-1.83;100.00
48077;BME280;33854;57.708;12.008;2023-03-01T04:50:54;98586.44;;;-1.87;100.00
48077;BME280;33854;57.708;12.008;2023-03-01T04:53:19;98591.69;;;-1.92;100.00
48077;BME280;33854;57.708;12.008;2023-03-01T04:55:45;98598.72;;;-1.98;100.00
48077;BME280;33854;57.708;12.008;2023-03-01T04:58:10;98597.97;;;-2.02;100.00
48077;BME280;33854;57.708;12.008;2023-03-01T05:00:35;98605.81;;;-2.08;100.00
48077;BME280;33854;57.708;12.008;2023-03-01T05:03:01;98612.72;;;-2.11;100.00
48077;BME280;33854;57.708;12.008;2023-03-01T05:05:30;98609.31;;;-2.12;100.00
48077;BME280;33854;57.708;12.008;2023-03-01T05:07:58;98618.06;;;-2.19;100.00
48077;BME280;33854;57.708;12.008;2023-03-01T05:10:24;98626.75;;;-2.24;100.00
48077;BME280;33854;57.708;12.008;2023-03-01T05:12:50;98629.28;;;-2.24;100.00
48077;BME280;33854;57.708;12.008;2023-03-01T05:15:17;98627.44;;;-2.19;100.00
48077;BME280;33854;57.708;12.008;2023-03-01T05:17:43;98611.25;;;-2.20;100.00
48077;BME280;33854;57.708;12.008;2023-03-01T05:20:10;98598.50;;;-2.20;100.00
48077;BME280;33854;57.708;12.008;2023-03-01T05:22:36;98597.53;;;-2.16;100.00
48077;BME280;33854;57.708;12.008;2023-03-01T05:25:03;98603.56;;;-2.18;100.00
48077;BME280;33854;57.708;12.008;2023-03-01T05:27:28;98599.28;;;-2.18;100.00
48077;BME280;33854;57.708;12.008;2023-03-01T05:29:55;98586.03;;;-2.31;100.00
48077;BME280;33854;57.708;12.008;2023-03-01T05:32:21;98602.75;;;-2.20;100.00
48077;BME280;33854;57.708;12.008;2023-03-01T05:34:46;98602.84;;;-2.23;100.00
48077;BME280;33854;57.708;12.008;2023-03-01T05:37:13;98599.41;;;-2.22;100.00
48077;BME280;33854;57.708;12.008;2023-03-01T05:39:38;98581.63;;;-2.25;100.00
48077;BME280;33854;57.708;12.008;2023-03-01T05:42:04;98590.13;;;-2.25;100.00
48077;BME280;33854;57.708;12.008;2023-03-01T05:44:30;98592.72;;;-2.26;100.00
48077;BME280;33854;57.708;12.008;2023-03-01T05:46:56;98595.25;;;-2.26;100.00
48077;BME280;33854;57.708;12.008;2023-03-01T05:49:22;98600.47;;;-2.30;100.00
48077;BME280;33854;57.708;12.008;2023-03-01T05:51:50;98609.09;;;-2.34;100.00
48077;BME280;33854;57.708;12.008;2023-03-01T05:54:17;98602.56;;;-2.44;100.00
48077;BME280;33854;57.708;12.008;2023-03-01T05:56:43;98607.31;;;-2.30;100.00
48077;BME280;33854;57.708;12.008;2023-03-01T05:59:09;98581.78;;;-2.32;100.00
48077;BME280;33854;57.708;12.008;2023-03-01T06:01:35;98599.25;;;-2.16;100.00
48077;BME280;33854;57.708;12.008;2023-03-01T06:04:01;98564.69;;;-2.30;100.00
48077;BME280;33854;57.708;12.008;2023-03-01T06:06:27;98587.06;;;-2.08;100.00
48077;BME280;33854;57.708;12.008;2023-03-01T06:08:54;98563.41;;;-2.15;100.00
48077;BME280;33854;57.708;12.008;2023-03-01T06:11:20;98590.25;;;-2.00;100.00
48077;BME280;33854;57.708;12.008;2023-03-01T06:13:46;98576.00;;;-2.07;100.00
48077;BME280;33854;57.708;12.008;2023-03-01T06:16:12;98610.59;;;-1.97;100.00
48077;BME280;33854;57.708;12.008;2023-03-01T06:18:38;98629.56;;;-2.04;100.00
48077;BME280;33854;57.708;12.008;2023-03-01T06:21:05;98652.13;;;-2.18;100.00
48077;BME280;33854;57.708;12.008;2023-03-01T06:23:31;98696.19;;;-2.10;100.00
48077;BME280;33854;57.708;12.008;2023-03-01T06:25:57;98684.41;;;-2.16;100.00
48077;BME280;33854;57.708;12.008;2023-03-01T06:28:22;98703.53;;;-2.00;100.00
48077;BME280;33854;57.708;12.008;2023-03-01T06:30:49;98710.91;;;-1.89;100.00
48077;BME280;33854;57.708;12.008;2023-03-01T06:33:15;98717.53;;;-1.82;100.00
48077;BME280;33854;57.708;12.008;2023-03-01T06:35:40;98714.75;;;-1.75;100.00
48077;BME280;33854;57.708;12.008;2023-03-01T06:38:06;98736.84;;;-1.72;100.00
48077;BME280;33854;57.708;12.008;2023-03-01T06:40:32;98747.81;;;-1.68;100.00
48077;BME280;33854;57.708;12.008;2023-03-01T06:43:00;98773.53;;;-1.73;100.00
48077;BME280;33854;57.708;12.008;2023-03-01T06:45:26;98795.75;;;-1.75;100.00
48077;BME280;33854;57.708;12.008;2023-03-01T06:47:51;98823.16;;;-1.80;100.00
48077;BME280;33854;57.708;12.008;2023-03-01T06:50:17;98846.94;;;-1.77;100.00
48077;BME280;33854;57.708;12.008;2023-03-01T06:52:43;98847.94;;;-1.82;100.00
48077;BME280;33854;57.708;12.008;2023-03-01T06:55:10;98880.03;;;-1.70;100.00
48077;BME280;33854;57.708;12.008;2023-03-01T06:57:35;98872.13;;;-1.63;100.00
48077;BME280;33854;57.708;12.008;2023-03-01T07:00:02;98861.81;;;-1.58;100.00
48077;BME280;33854;57.708;12.008;2023-03-01T07:02:28;98870.56;;;-1.36;100.00
48077;BME280;33854;57.708;12.008;2023-03-01T07:04:53;98876.38;;;-1.31;100.00
48077;BME280;33854;57.708;12.008;2023-03-01T07:07:19;98894.84;;;-1.20;100.00
48077;BME280;33854;57.708;12.008;2023-03-01T07:09:45;98922.75;;;-1.11;100.00
48077;BME280;33854;57.708;12.008;2023-03-01T07:12:11;98943.22;;;-1.11;100.00
48077;BME280;33854;57.708;12.008;2023-03-01T07:14:37;98973.63;;;-1.00;100.00
48077;BME280;33854;57.708;12.008;2023-03-01T07:17:02;98988.84;;;-0.94;100.00
48077;BME280;33854;57.708;12.008;2023-03-01T07:19:27;99011.72;;;-0.88;100.00
48077;BME280;33854;57.708;12.008;2023-03-01T07:21:53;99037.94;;;-0.80;100.00
48077;BME280;33854;57.708;12.008;2023-03-01T07:24:19;99061.59;;;-0.71;100.00
48077;BME280;33854;57.708;12.008;2023-03-01T07:26:48;99079.22;;;-0.59;100.00
48077;BME280;33854;57.708;12.008;2023-03-01T07:29:13;99102.97;;;-0.52;100.00
48077;BME280;33854;57.708;12.008;2023-03-01T07:31:39;99128.44;;;-0.47;100.00
48077;BME280;33854;57.708;12.008;2023-03-01T07:34:04;99147.38;;;-0.53;100.00
48077;BME280;33854;57.708;12.008;2023-03-01T07:36:30;99194.06;;;-0.42;100.00
48077;BME280;33854;57.708;12.008;2023-03-01T07:38:55;99215.28;;;-0.37;100.00
48077;BME280;33854;57.708;12.008;2023-03-01T07:41:21;99240.84;;;-0.34;100.00
48077;BME280;33854;57.708;12.008;2023-03-01T07:43:47;99270.59;;;-0.27;100.00
48077;BME280;33854;57.708;12.008;2023-03-01T07:46:12;99293.59;;;-0.24;100.00
48077;BME280;33854;57.708;12.008;2023-03-01T07:48:38;99313.16;;;-0.21;100.00
48077;BME280;33854;57.708;12.008;2023-03-01T07:51:05;99312.00;;;-0.10;100.00
48077;BME280;33854;57.708;12.008;2023-03-01T07:53:31;99304.25;;;-0.07;100.00
48077;BME280;33854;57.708;12.008;2023-03-01T07:56:08;99306.44;;;0.07;100.00
48077;BME280;33854;57.708;12.008;2023-03-01T07:58:35;99318.16;;;0.17;100.00
48077;BME280;33854;57.708;12.008;2023-03-01T08:01:14;99311.25;;;0.19;100.00
48077;BME280;33854;57.708;12.008;2023-03-01T08:03:40;99328.16;;;0.26;100.00
48077;BME280;33854;57.708;12.008;2023-03-01T08:06:08;99343.22;;;0.38;100.00
48077;BME280;33854;57.708;12.008;2023-03-01T08:08:34;99352.41;;;0.47;100.00
48077;BME280;33854;57.708;12.008;2023-03-01T08:11:01;99353.72;;;0.62;100.00
48077;BME280;33854;57.708;12.008;2023-03-01T08:13:27;99356.72;;;0.77;100.00
48077;BME280;33854;57.708;12.008;2023-03-01T08:15:53;99358.13;;;0.87;100.00
48077;BME280;33854;57.708;12.008;2023-03-01T08:18:20;99381.94;;;0.92;100.00
48077;BME280;33854;57.708;12.008;2023-03-01T08:20:46;99413.34;;;1.02;100.00
48077;BME280;33854;57.708;12.008;2023-03-01T08:23:12;99433.69;;;1.09;100.00
48077;BME280;33854;57.708;12.008;2023-03-01T08:25:37;99442.03;;;1.18;100.00
48077;BME280;33854;57.708;12.008;2023-03-01T08:28:04;99454.50;;;1.30;100.00
48077;BME280;33854;57.708;12.008;2023-03-01T08:30:30;99473.97;;;1.38;100.00
48077;BME280;33854;57.708;12.008;2023-03-01T08:32:55;99489.38;;;1.40;100.00
48077;BME280;33854;57.708;12.008;2023-03-01T08:35:21;99514.00;;;1.47;100.00
48077;BME280;33854;57.708;12.008;2023-03-01T08:37:47;99529.25;;;1.53;100.00
48077;BME280;33854;57.708;12.008;2023-03-01T08:40:12;99529.41;;;1.48;100.00
48077;BME280;33854;57.708;12.008;2023-03-01T08:42:39;99574.09;;;1.73;100.00
48077;BME280;33854;57.708;12.008;2023-03-01T08:45:06;99606.59;;;1.76;100.00
48077;BME280;33854;57.708;12.008;2023-03-01T08:47:32;99638.00;;;1.87;100.00
48077;BME280;33854;57.708;12.008;2023-03-01T08:49:59;99669.56;;;1.94;100.00
48077;BME280;33854;57.708;12.008;2023-03-01T08:52:24;99702.91;;;1.97;100.00
48077;BME280;33854;57.708;12.008;2023-03-01T08:54:51;99709.56;;;2.04;100.00
48077;BME280;33854;57.708;12.008;2023-03-01T08:57:17;99711.50;;;1.97;100.00
48077;BME280;33854;57.708;12.008;2023-03-01T08:59:42;99751.31;;;2.15;100.00
48077;BME280;33854;57.708;12.008;2023-03-01T09:02:16;99784.72;;;2.18;100.00
48077;BME280;33854;57.708;12.008;2023-03-01T09:04:42;99799.97;;;2.24;100.00
48077;BME280;33854;57.708;12.008;2023-03-01T09:07:08;99820.44;;;2.28;100.00
48077;BME280;33854;57.708;12.008;2023-03-01T09:09:34;99866.63;;;2.35;100.00
48077;BME280;33854;57.708;12.008;2023-03-01T09:12:00;99884.72;;;2.32;100.00
48077;BME280;33854;57.708;12.008;2023-03-01T09:14:25;99940.31;;;2.39;100.00
48077;BME280;33854;57.708;12.008;2023-03-01T09:16:51;99971.91;;;2.47;100.00
48077;BME280;33854;57.708;12.008;2023-03-01T09:19:16;99996.72;;;2.49;100.00
48077;BME280;33854;57.708;12.008;2023-03-01T09:21:42;100024.00;;;2.58;100.00
48077;BME280;33854;57.708;12.008;2023-03-01T09:24:17;100042.66;;;2.66;100.00
48077;BME280;33854;57.708;12.008;2023-03-01T09:26:43;100076.81;;;2.74;100.00
48077;BME280;33854;57.708;12.008;2023-03-01T09:29:11;100112.75;;;2.80;100.00
48077;BME280;33854;57.708;12.008;2023-03-01T09:31:37;100171.28;;;2.75;100.00
48077;BME280;33854;57.708;12.008;2023-03-01T09:34:03;100198.66;;;2.79;100.00
48077;BME280;33854;57.708;12.008;2023-03-01T09:36:29;100240.66;;;2.84;100.00
48077;BME280;33854;57.708;12.008;2023-03-01T09:38:54;100269.63;;;2.94;100.00
48077;BME280;33854;57.708;12.008;2023-03-01T09:43:55;100296.66;;;3.14;100.00
48077;BME280;33854;57.708;12.008;2023-03-01T09:46:24;100323.25;;;3.16;100.00
48077;BME280;33854;57.708;12.008;2023-03-01T09:48:55;100370.19;;;3.30;100.00
48077;BME280;33854;57.708;12.008;2023-03-01T09:51:41;100358.09;;;3.34;100.00
48077;BME280;33854;57.708;12.008;2023-03-01T09:54:09;100405.97;;;3.45;100.00
48077;BME280;33854;57.708;12.008;2023-03-01T09:59:28;100447.94;;;3.54;100.00
48077;BME280;33854;57.708;12.008;2023-03-01T10:04:48;100530.50;;;3.54;100.00
48077;BME280;33854;57.708;12.008;2023-03-01T10:07:20;100611.06;;;3.68;100.00
48077;BME280;33854;57.708;12.008;2023-03-01T10:09:47;100597.03;;;3.81;100.00
48077;BME280;33854;57.708;12.008;2023-03-01T10:12:27;100591.69;;;3.90;100.00
48077;BME280;33854;57.708;12.008;2023-03-01T10:15:03;100601.91;;;3.96;100.00
48077;BME280;33854;57.708;12.008;2023-03-01T10:17:46;100619.78;;;4.03;100.00
48077;BME280;33854;57.708;12.008;2023-03-01T10:20:18;100648.03;;;4.11;100.00
48077;BME280;33854;57.708;12.008;2023-03-01T10:22:44;100666.78;;;4.19;100.00
48077;BME280;33854;57.708;12.008;2023-03-01T10:25:16;100708.00;;;4.25;100.00
48077;BME280;33854;57.708;12.008;2023-03-01T10:27:54;100729.41;;;4.32;100.00
48077;BME280;33854;57.708;12.008;2023-03-01T10:30:39;100746.34;;;4.45;100.00
48077;BME280;33854;57.708;12.008;2023-03-01T10:33:42;100815.13;;;4.52;100.00
48077;BME280;33854;57.708;12.008;2023-03-01T10:36:08;100834.69;;;4.64;100.00
48077;BME280;33854;57.708;12.008;2023-03-01T10:38:52;100844.00;;;4.72;100.00
48077;BME280;33854;57.708;12.008;2023-03-01T10:41:20;100860.25;;;4.77;100.00
48077;BME280;33854;57.708;12.008;2023-03-01T10:43:57;100886.88;;;4.82;100.00
48077;BME280;33854;57.708;12.008;2023-03-01T10:46:31;100926.50;;;4.84;100.00
48077;BME280;33854;57.708;12.008;2023-03-01T10:49:19;100938.41;;;4.91;100.00
48077;BME280;33854;57.708;12.008;2023-03-01T10:51:46;100967.66;;;4.96;100.00
48077;BME280;33854;57.708;12.008;2023-03-01T10:54:30;100996.00;;;4.99;100.00
48077;BME280;33854;57.708;12.008;2023-03-01T10:56:59;101040.69;;;5.09;100.00
48077;BME280;33854;57.708;12.008;2023-03-01T10:59:30;101064.66;;;5.17;100.00
48077;BME280;33854;57.708;12.008;2023-03-01T11:02:22;101120.63;;;5.23;100.00
48077;BME280;33854;57.708;12.008;2023-03-01T11:07:27;101183.44;;;5.32;100.00
48077;BME280;33854;57.708;12.008;2023-03-01T11:09:53;101216.13;;;5.38;100.00
48077;BME280;33854;57.708;12.008;2023-03-01T11:12:20;101272.00;;;5.49;100.00
48077;BME280;33854;57.708;12.008;2023-03-01T11:14:50;101323.59;;;5.60;100.00
48077;BME280;33854;57.708;12.008;2023-03-01T11:17:29;101390.00;;;5.64;100.00
48077;BME280;33854;57.708;12.008;2023-03-01T11:22:53;101450.13;;;5.86;100.00
48077;BME280;33854;57.708;12.008;2023-03-01T11:25:23;101489.63;;;6.00;100.00
48077;BME280;33854;57.708;12.008;2023-03-01T11:27:49;101485.25;;;6.03;100.00
48077;BME280;33854;57.708;12.008;2023-03-01T11:30:23;101493.97;;;5.98;100.00
48077;BME280;33854;57.708;12.008;2023-03-01T11:35:35;101496.28;;;6.16;100.00
48077;BME280;33854;57.708;12.008;2023-03-01T11:38:21;101494.63;;;6.12;100.00
48077;BME280;33854;57.708;12.008;2023-03-01T11:40:52;101529.03;;;6.20;100.00
48077;BME280;33854;57.708;12.008;2023-03-01T11:43:44;101556.63;;;6.25;100.00
48077;BME280;33854;57.708;12.008;2023-03-01T11:52:02;101650.28;;;6.61;100.00
48077;BME280;33854;57.708;12.008;2023-03-01T12:08:20;101797.94;;;7.32;100.00
48077;BME280;33854;57.708;12.008;2023-03-01T12:17:04;101775.03;;;8.49;100.00
48077;BME280;33854;57.708;12.008;2023-03-01T12:22:32;101696.84;;;9.27;100.00
48077;BME280;33854;57.708;12.008;2023-03-01T12:38:25;101702.34;;;10.98;100.00
48077;BME280;33854;57.708;12.008;2023-03-01T12:51:51;102129.34;;;12.65;100.00
48077;BME280;33854;57.708;12.008;2023-03-01T12:54:30;102222.91;;;12.88;100.00
48077;BME280;33854;57.708;12.008;2023-03-01T12:56:58;102287.56;;;12.58;100.00
48077;BME280;33854;57.708;12.008;2023-03-01T12:59:36;102313.94;;;12.81;100.00
48077;BME280;33854;57.708;12.008;2023-03-01T13:08:13;102357.50;;;13.68;100.00
48077;BME280;33854;57.708;12.008;2023-03-01T13:10:53;102344.66;;;13.86;100.00
48077;BME280;33854;57.708;12.008;2023-03-01T13:13:24;102349.09;;;14.35;100.00
48077;BME280;33854;57.708;12.008;2023-03-01T13:15:51;102344.91;;;14.75;100.00
48077;BME280;33854;57.708;12.008;2023-03-01T13:31:02;102323.88;;;15.20;100.00
48077;BME280;33854;57.708;12.008;2023-03-01T13:35:55;102307.81;;;15.90;100.00
48077;BME280;33854;57.708;12.008;2023-03-01T13:38:45;102302.47;;;16.12;100.00
48077;BME280;33854;57.708;12.008;2023-03-01T13:46:59;102291.22;;;16.08;100.00
48077;BME280;33854;57.708;12.008;2023-03-01T13:49:36;102291.44;;;15.83;100.00
48077;BME280;33854;57.708;12.008;2023-03-01T13:52:06;102287.84;;;15.84;100.00
48077;BME280;33854;57.708;12.008;2023-03-01T13:54:46;102288.56;;;16.08;100.00
48077;BME280;33854;57.708;12.008;2023-03-01T13:57:20;102291.69;;;16.36;100.00
48077;BME280;33854;57.708;12.008;2023-03-01T13:59:47;102284.09;;;16.68;100.00
48077;BME280;33854;57.708;12.008;2023-03-01T14:02:13;102289.41;;;16.47;100.00
48077;BME280;33854;57.708;12.008;2023-03-01T14:04:38;102286.19;;;16.61;100.00
48077;BME280;33854;57.708;12.008;2023-03-01T14:07:18;102292.38;;;16.60;100.00
48077;BME280;33854;57.708;12.008;2023-03-01T14:09:47;102270.50;;;16.77;97.09
48077;BME280;33854;57.708;12.008;2023-03-01T14:12:35;102277.34;;;17.34;93.36
48077;BME280;33854;57.708;12.008;2023-03-01T14:15:34;102266.81;;;17.85;87.09
48077;BME280;33854;57.708;12.008;2023-03-01T14:18:12;102246.88;;;17.62;83.69
48077;BME280;33854;57.708;12.008;2023-03-01T14:20:42;102262.34;;;17.70;82.15
48077;BME280;33854;57.708;12.008;2023-03-01T14:23:13;102260.88;;;17.12;80.82
48077;BME280;33854;57.708;12.008;2023-03-01T14:25:47;102270.78;;;16.89;80.51
48077;BME280;33854;57.708;12.008;2023-03-01T14:30:44;102254.03;;;17.07;80.74
48077;BME280;33854;57.708;12.008;2023-03-01T14:35:59;102261.78;;;18.93;72.59
48077;BME280;33854;57.708;12.008;2023-03-01T14:40:59;102266.16;;;18.78;72.17
48077;BME280;33854;57.708;12.008;2023-03-01T14:43:26;102265.25;;;18.47;70.71
48077;BME280;33854;57.708;12.008;2023-03-01T14:45:54;102265.53;;;19.05;69.06